Time;durP1;ratioP1;P1;durP2;ratioP2;P2;SDS_P1;SDS_P2;PMS_P1;PMS_P2;Temp;Humidity;BMP_temperature;BMP_pressure;BME280_temperature;BME280_humidity;BME280_pressure;Samples;Min_cycle;Max_cycle;Signal;HPM_P1;HPM_P2
2022/01/22 00:00:33;;;;;;;15.18;2.28;;;6.30;99.90;;;;;;4937354;29;20051;-77
2022/01/22 00:02:59;;;;;;;8.55;1.75;;;6.80;99.90;;;;;;4937598;29;20050;-78
2022/01/22 00:05:25;;;;;;;10.15;1.92;;;6.30;99.90;;;;;;4954613;29;20094;-73
2022/01/22 00:07:51;;;;;;;10.13;1.73;;;6.30;99.90;;;;;;4954465;29;20063;-75
2022/01/22 00:10:19;;;;;;;7.63;1.73;;;6.30;99.90;;;;;;4954795;29;20047;-70
2022/01/22 00:15:22;;;;;;;12.27;1.88;;;6.40;99.90;;;;;;4954167;29;20611;-72
2022/01/22 00:17:49;;;;;;;8.25;1.92;;;6.30;99.90;;;;;;4954148;29;20035;-70
2022/01/22 00:20:16;;;;;;;11.27;2.00;;;6.30;99.90;;;;;;4921281;29;20636;-71
2022/01/22 00:22:43;;;;;;;14.82;1.83;;;6.30;99.90;;;;;;4954477;29;20057;-71
2022/01/22 00:25:09;;;;;;;6.93;1.55;;;6.30;99.90;;;;;;4954268;29;20479;-71
2022/01/22 00:27:37;;;;;;;10.23;1.75;;;6.30;99.90;;;;;;4956392;28;20051;-71
2022/01/22 00:30:05;;;;;;;14.10;2.30;;;6.30;99.90;;;;;;4958032;29;20057;-69
2022/01/22 00:32:30;;;;;;;14.57;2.40;;;6.30;99.90;;;;;;4958085;29;20406;-71
2022/01/22 00:34:56;;;;;;;9.38;1.90;;;6.50;99.90;;;;;;4957874;29;20055;-71
2022/01/22 00:37:22;;;;;;;11.20;1.90;;;6.30;99.90;;;;;;4957856;29;20043;-69
2022/01/22 00:39:47;;;;;;;13.50;2.05;;;6.30;99.90;;;;;;4958100;29;20055;-69
2022/01/22 00:42:15;;;;;;;11.07;1.70;;;6.30;99.90;;;;;;4957974;29;20384;-67
2022/01/22 00:44:42;;;;;;;11.73;1.98;;;6.40;99.90;;;;;;4957421;29;20435;-71
2022/01/22 00:47:09;;;;;;;15.05;2.03;;;6.40;99.90;;;;;;4940398;29;20114;-70
2022/01/22 00:49:35;;;;;;;10.77;2.00;;;6.30;99.90;;;;;;4957678;29;20047;-71
2022/01/22 00:52:02;;;;;;;13.65;2.40;;;6.40;99.90;;;;;;4958068;29;20047;-71
2022/01/22 00:54:27;;;;;;;15.02;1.95;;;6.40;99.90;;;;;;4957778;29;20400;-74
2022/01/22 00:56:53;;;;;;;12.48;2.40;;;6.40;99.90;;;;;;4957797;29;20122;-70
2022/01/22 00:59:19;;;;;;;10.57;2.25;;;6.80;99.90;;;;;;4957235;29;20483;-70
2022/01/22 01:01:44;;;;;;;12.02;1.98;;;6.30;99.90;;;;;;4957635;29;20399;-71
2022/01/22 01:04:11;;;;;;;13.93;2.47;;;6.40;99.90;;;;;;4957372;29;20094;-71
2022/01/22 01:06:38;;;;;;;8.48;1.70;;;6.40;99.90;;;;;;4957591;29;20051;-71
2022/01/22 01:09:07;;;;;;;10.55;1.63;;;6.40;99.90;;;;;;4957601;29;20069;-71
2022/01/22 01:11:37;;;;;;;10.30;1.90;;;6.40;99.90;;;;;;4957289;29;20484;-71
2022/01/22 01:14:06;;;;;;;7.93;1.83;;;6.40;99.90;;;;;;4957386;29;20047;-71
2022/01/22 01:33:09;;;;;;;7.10;1.58;;;6.50;99.90;;;;;;4897786;29;20045;-71
2022/01/22 01:35:38;;;;;;;9.15;1.50;;;6.70;99.90;;;;;;4897670;29;20075;-71
2022/01/22 01:38:05;;;;;;;5.97;1.23;;;6.60;99.90;;;;;;4896893;29;20398;-71
2022/01/22 01:40:32;;;;;;;6.38;1.52;;;6.50;99.90;;;;;;4897617;29;20052;-70
2022/01/22 01:43:14;;;;;;;6.75;1.30;;;6.60;99.90;;;;;;4897556;29;20045;-70
2022/01/22 01:45:41;;;;;;;4.50;1.02;;;6.40;99.90;;;;;;4897786;29;20123;-71
2022/01/22 01:48:13;;;;;;;7.35;1.35;;;6.40;99.90;;;;;;4881583;29;20442;-71
2022/01/22 01:50:40;;;;;;;6.57;1.55;;;6.40;99.90;;;;;;4897528;29;20412;-69
2022/01/22 01:53:13;;;;;;;4.78;1.10;;;6.50;99.90;;;;;;4897615;29;20063;-71
2022/01/22 01:56:02;;;;;;;6.72;1.48;;;6.40;99.90;;;;;;4897475;29;20049;-71
2022/01/22 01:58:30;;;;;;;9.02;1.60;;;6.40;99.90;;;;;;4919394;29;20055;-71
2022/01/22 02:01:00;;;;;;;7.80;1.60;;;6.40;99.90;;;;;;4939250;29;20151;-70
2022/01/22 02:03:26;;;;;;;8.73;2.08;;;6.40;99.90;;;;;;4956176;29;20083;-71
2022/01/22 02:05:53;;;;;;;13.63;2.20;;;6.40;99.90;;;;;;4956603;29;20086;-73
2022/01/22 02:08:20;;;;;;;9.93;1.83;;;6.40;99.90;;;;;;4955895;29;20043;-70
2022/01/22 02:10:55;;;;;;;8.55;2.08;;;6.50;99.90;;;;;;4956419;29;20114;-73
2022/01/22 02:13:46;;;;;;;13.52;1.95;;;6.50;99.90;;;;;;4956303;29;20047;-73
2022/01/22 02:24:50;;;;;;;9.10;1.75;;;6.50;99.90;;;;;;4956258;29;20132;-71
2022/01/22 02:27:16;;;;;;;10.20;1.95;;;6.50;99.90;;;;;;4956173;29;20051;-71
2022/01/22 02:29:42;;;;;;;12.80;2.08;;;6.50;99.90;;;;;;4956082;29;20051;-72
2022/01/22 02:35:02;;;;;;;8.40;1.52;;;6.40;99.90;;;;;;4955356;29;20058;-73
2022/01/22 02:37:34;;;;;;;6.95;1.40;;;6.40;99.90;;;;;;4955571;29;20055;-71
2022/01/22 02:40:08;;;;;;;4.05;1.17;;;6.40;99.90;;;;;;4955801;29;20125;-73
2022/01/22 02:42:35;;;;;;;5.75;1.23;;;6.60;99.90;;;;;;4938554;29;20126;-69
2022/01/22 02:45:06;;;;;;;5.68;1.40;;;6.30;99.90;;;;;;4955369;29;20044;-71
2022/01/22 02:47:35;;;;;;;8.43;1.67;;;6.30;99.90;;;;;;4955607;29;20050;-77
2022/01/22 02:50:02;;;;;;;6.82;1.40;;;6.30;99.90;;;;;;4954868;28;20051;-77
2022/01/22 02:52:28;;;;;;;16.33;2.38;;;6.30;99.90;;;;;;4938396;29;20051;-77
2022/01/22 02:54:55;;;;;;;13.27;2.30;;;6.50;99.90;;;;;;4955516;29;20479;-77
2022/01/22 02:57:21;;;;;;;11.30;1.85;;;6.30;99.90;;;;;;4955496;29;20053;-77
2022/01/22 02:59:46;;;;;;;9.60;2.10;;;6.30;99.90;;;;;;4955411;29;20047;-77
2022/01/22 03:02:13;;;;;;;12.18;1.80;;;6.30;99.90;;;;;;4955483;29;20395;-77
2022/01/22 03:04:39;;;;;;;10.80;1.90;;;6.30;99.90;;;;;;4955366;29;20106;-74
2022/01/22 03:07:06;;;;;;;13.10;2.00;;;6.30;99.90;;;;;;4957891;29;20044;-76
2022/01/22 03:09:39;;;;;;;8.55;1.63;;;6.30;99.90;;;;;;4955615;29;20054;-77
2022/01/22 03:15:11;;;;;;;5.57;1.55;;;6.30;99.90;;;;;;4969690;28;20055;-71
2022/01/22 03:17:56;;;;;;;5.70;1.45;;;6.30;99.90;;;;;;4969934;29;20063;-76
2022/01/22 03:20:44;;;;;;;5.72;1.50;;;6.30;99.90;;;;;;4955541;29;20044;-77
2022/01/22 03:27:18;;;;;;;9.90;1.83;;;6.60;99.90;;;;;;4955439;29;20055;-77
2022/01/22 03:28:53;;;;;;;7.40;1.58;;;6.20;99.90;;;;;;4955173;29;20054;-76
2022/01/22 03:31:19;;;;;;;6.22;1.63;;;6.30;99.90;;;;;;4937925;29;20114;-75
2022/01/22 03:33:44;;;;;;;8.95;1.60;;;6.20;99.90;;;;;;4937672;29;20047;-71
2022/01/22 03:36:11;;;;;;;9.95;2.50;;;6.20;99.90;;;;;;4937283;29;20058;-77
2022/01/22 03:38:37;;;;;;;8.45;1.50;;;6.20;99.90;;;;;;4954363;29;20070;-76
2022/01/22 03:41:03;;;;;;;10.45;1.70;;;6.20;99.90;;;;;;4954782;29;20086;-77
2022/01/22 03:43:29;;;;;;;7.45;1.75;;;6.30;99.90;;;;;;4954911;29;20564;-78
2022/01/22 03:45:54;;;;;;;12.38;1.38;;;6.20;99.90;;;;;;4954695;29;20046;-76
2022/01/22 03:48:20;;;;;;;9.15;1.95;;;6.10;99.90;;;;;;4937603;29;20051;-73
2022/01/22 03:50:48;;;;;;;8.25;2.10;;;6.10;99.90;;;;;;4955009;29;20078;-72
2022/01/22 03:53:13;;;;;;;12.05;1.73;;;6.20;99.90;;;;;;4954218;29;20487;-77
2022/01/22 03:58:08;;;;;;;6.80;1.80;;;6.20;99.90;;;;;;4954542;29;20058;-78
2022/01/22 04:00:33;;;;;;;8.40;1.83;;;6.20;99.90;;;;;;4954330;29;20039;-77
2022/01/22 04:06:03;;;;;;;6.72;2.17;;;6.20;99.90;;;;;;4954758;29;20404;-74
2022/01/22 04:08:29;;;;;;;7.25;1.92;;;6.20;99.90;;;;;;4953746;29;20784;-74
2022/01/22 04:10:54;;;;;;;9.60;1.65;;;6.20;99.90;;;;;;4954551;29;20130;-75
2022/01/22 04:13:25;;;;;;;8.98;2.08;;;6.10;99.90;;;;;;4937321;29;20105;-74
2022/01/22 04:15:51;;;;;;;14.18;2.00;;;6.20;99.90;;;;;;4954569;29;20055;-77
2022/01/22 04:29:01;;;;;;;7.85;1.48;;;6.10;99.90;;;;;;4937075;29;20086;-71
2022/01/22 04:31:26;;;;;;;8.30;1.80;;;6.10;99.90;;;;;;4954403;29;20043;-72
2022/01/22 04:33:52;;;;;;;8.18;2.25;;;6.10;99.90;;;;;;4954499;29;20047;-71
2022/01/22 04:36:18;;;;;;;11.07;2.13;;;5.70;99.90;;;;;;4954120;29;20447;-70
2022/01/22 04:38:43;;;;;;;13.15;2.00;;;6.10;99.90;;;;;;4936566;29;20070;-71
2022/01/22 04:41:09;;;;;;;5.72;2.00;;;6.10;99.90;;;;;;4954114;29;20062;-71
2022/01/22 04:43:37;;;;;;;7.82;1.58;;;6.10;99.90;;;;;;4954279;29;20043;-71
2022/01/22 04:46:34;;;;;;;8.18;1.55;;;6.10;99.90;;;;;;4937289;29;20459;-71
2022/01/22 04:49:11;;;;;;;10.10;2.03;;;6.10;99.90;;;;;;4953847;29;20135;-71
2022/01/22 04:57:06;;;;;;;8.60;1.67;;;6.10;99.90;;;;;;4953549;29;20047;-71
2022/01/22 04:59:31;;;;;;;8.40;1.80;;;6.10;99.90;;;;;;4953805;29;20125;-70
2022/01/22 05:01:57;;;;;;;10.13;1.50;;;6.20;99.90;;;;;;4953938;29;20085;-71
2022/01/22 05:04:23;;;;;;;8.50;1.65;;;6.10;99.90;;;;;;4954302;29;20102;-69
2022/01/22 05:06:48;;;;;;;7.10;1.80;;;6.10;99.90;;;;;;4954158;29;20476;-70
2022/01/22 05:09:14;;;;;;;9.70;1.80;;;6.10;99.90;;;;;;4954036;29;20373;-71
2022/01/22 05:11:40;;;;;;;7.45;1.60;;;6.10;99.90;;;;;;4953285;29;20117;-71
2022/01/22 05:14:05;;;;;;;9.57;1.70;;;6.10;99.90;;;;;;4955097;28;20047;-71
2022/01/22 05:16:31;;;;;;;4.70;1.33;;;6.10;99.90;;;;;;4957226;29;20055;-72
2022/01/22 05:19:11;;;;;;;5.70;1.50;;;6.10;99.90;;;;;;4957560;29;20130;-72
2022/01/22 05:21:38;;;;;;;8.45;1.38;;;6.30;99.90;;;;;;4957149;29;20477;-71
2022/01/22 05:24:09;;;;;;;6.88;1.50;;;6.10;99.90;;;;;;4957166;29;20051;-69
2022/01/22 05:37:08;;;;;;;4.72;1.30;;;6.10;99.90;;;;;;4956859;29;20508;-69
2022/01/22 05:39:35;;;;;;;5.72;1.20;;;6.10;99.90;;;;;;4956788;29;20154;-70
2022/01/22 05:42:04;;;;;;;7.63;1.40;;;6.10;99.90;;;;;;4957040;29;20059;-69
2022/01/22 05:44:31;;;;;;;7.85;1.65;;;6.10;99.90;;;;;;4956251;29;20495;-70
2022/01/22 05:47:02;;;;;;;8.50;1.50;;;6.00;99.90;;;;;;4956832;29;20106;-72
2022/01/22 05:49:30;;;;;;;7.72;1.50;;;6.60;99.90;;;;;;4956797;29;20078;-72
2022/01/22 05:51:57;;;;;;;7.28;1.33;;;6.00;99.90;;;;;;4956494;29;20058;-71
2022/01/22 05:59:40;;;;;;;6.32;1.90;;;6.00;99.90;;;;;;4938835;29;20101;-71
2022/01/22 06:02:14;;;;;;;7.22;1.60;;;6.10;99.90;;;;;;4956364;29;20093;-70
2022/01/22 06:04:40;;;;;;;6.47;1.25;;;6.30;99.90;;;;;;4956182;29;20051;-71
2022/01/22 06:07:07;;;;;;;7.57;1.27;;;6.10;99.90;;;;;;4956399;29;20054;-71
2022/01/22 06:09:34;;;;;;;9.55;1.52;;;6.00;99.90;;;;;;4939116;29;20134;-72
2022/01/22 06:14:33;;;;;;;11.15;2.05;;;6.00;99.90;;;;;;4955851;29;20133;-72
2022/01/22 06:16:59;;;;;;;13.27;1.70;;;6.30;99.90;;;;;;4956018;29;20054;-72
2022/01/22 06:19:24;;;;;;;7.65;1.52;;;6.10;99.90;;;;;;4955994;29;20051;-73
2022/01/22 06:21:51;;;;;;;5.97;1.65;;;6.00;99.90;;;;;;4955971;29;20406;-71
2022/01/22 06:24:18;;;;;;;6.70;1.65;;;6.00;99.90;;;;;;4955922;28;20050;-70
2022/01/22 06:26:43;;;;;;;95.20;7.68;;;6.10;99.90;;;;;;4956172;29;20380;-71
2022/01/22 06:29:09;;;;;;;5.18;1.40;;;6.10;99.90;;;;;;4938670;29;20054;-71
2022/01/22 06:31:35;;;;;;;9.27;1.70;;;6.20;99.90;;;;;;4938532;29;20444;-71
2022/01/22 06:34:02;;;;;;;5.95;1.45;;;6.10;99.90;;;;;;4955605;29;20047;-71
2022/01/22 06:36:28;;;;;;;16.58;2.53;;;6.50;99.90;;;;;;4955979;29;20106;-71
2022/01/22 06:41:45;;;;;;;17.63;2.53;;;6.10;99.90;;;;;;4955806;29;20436;-77
2022/01/22 06:44:17;;;;;;;9.88;2.13;;;6.10;99.90;;;;;;4955711;29;20238;-77
2022/01/22 06:46:45;;;;;;;9.75;1.70;;;6.10;99.90;;;;;;4955079;29;20054;-78
2022/01/22 06:49:11;;;;;;;10.50;1.80;;;6.10;99.90;;;;;;4938142;29;20460;-78
2022/01/22 06:51:36;;;;;;;6.28;1.38;;;6.10;99.90;;;;;;4938328;29;20138;-77
2022/01/22 06:54:04;;;;;;;7.00;1.40;;;6.10;99.90;;;;;;4955765;29;20114;-75
2022/01/22 06:56:30;;;;;;;7.43;1.70;;;6.10;99.90;;;;;;4955575;29;20043;-77
2022/01/22 06:58:57;;;;;;;7.07;1.88;;;6.10;99.90;;;;;;4955468;29;20090;-74
2022/01/22 07:01:24;;;;;;;7.35;1.70;;;6.10;99.90;;;;;;4937930;29;20090;-79
2022/01/22 07:03:49;;;;;;;8.30;1.98;;;6.20;99.90;;;;;;4956111;29;20106;-76
2022/01/22 07:06:15;;;;;;;9.05;2.08;;;6.20;99.90;;;;;;4956737;29;20491;-77
2022/01/22 07:08:41;;;;;;;6.53;1.63;;;6.10;99.90;;;;;;4959696;29;20098;-77
2022/01/22 07:11:07;;;;;;;7.07;1.40;;;6.20;99.90;;;;;;4967403;29;20031;-73
2022/01/22 07:13:33;;;;;;;6.40;1.83;;;6.20;99.90;;;;;;4972407;29;20054;-74
2022/01/22 07:15:59;;;;;;;7.45;1.48;;;6.10;99.90;;;;;;4953145;29;20103;-78
2022/01/22 07:18:25;;;;;;;5.32;1.33;;;6.10;99.90;;;;;;4964510;29;20051;-76
2022/01/22 07:20:52;;;;;;;10.80;1.67;;;6.30;99.90;;;;;;4961192;29;20496;-79
2022/01/22 07:26:03;;;;;;;6.63;1.73;;;6.10;99.90;;;;;;4955445;29;20047;-73
2022/01/22 07:28:29;;;;;;;6.35;1.02;;;6.10;99.90;;;;;;4936983;29;20066;-74
2022/01/22 07:30:55;;;;;;;4.55;1.20;;;6.10;99.90;;;;;;4937935;29;20476;-76
2022/01/22 07:33:21;;;;;;;10.95;1.67;;;6.20;99.90;;;;;;4954836;29;20051;-73
2022/01/22 07:35:47;;;;;;;4.78;1.30;;;6.10;99.90;;;;;;4954466;29;20204;-71
2022/01/22 07:38:13;;;;;;;6.20;1.45;;;6.10;99.90;;;;;;4954647;29;20070;-72
2022/01/22 07:40:40;;;;;;;3.50;1.10;;;6.10;99.90;;;;;;4954816;29;20483;-72
2022/01/22 07:43:06;;;;;;;5.07;1.15;;;6.10;99.90;;;;;;4954841;29;20051;-72
2022/01/22 07:45:31;;;;;;;4.88;1.00;;;6.60;99.90;;;;;;4954534;29;20129;-75
2022/01/22 07:47:57;;;;;;;3.00;1.02;;;6.10;99.90;;;;;;4954988;29;20050;-73
2022/01/22 07:50:23;;;;;;;4.90;1.30;;;6.10;99.90;;;;;;4954312;29;20043;-73
2022/01/22 07:52:48;;;;;;;4.43;0.80;;;6.10;99.90;;;;;;4954603;29;20047;-71
2022/01/22 07:55:16;;;;;;;3.58;0.95;;;6.10;99.90;;;;;;4954748;29;20083;-72
2022/01/22 07:57:44;;;;;;;3.35;0.80;;;6.10;99.90;;;;;;4958440;28;20065;-68
2022/01/22 08:00:11;;;;;;;5.47;1.23;;;6.10;99.90;;;;;;4972810;28;20050;-74
2022/01/22 08:02:37;;;;;;;3.85;0.95;;;6.10;99.90;;;;;;4974015;28;20178;-73
2022/01/22 08:05:03;;;;;;;5.03;1.40;;;6.10;99.90;;;;;;4973241;28;20121;-69
2022/01/22 08:07:31;;;;;;;3.95;0.88;;;6.10;99.90;;;;;;4945036;28;20051;-77
2022/01/22 08:09:58;;;;;;;4.40;1.02;;;6.10;99.90;;;;;;4944723;29;20047;-73
2022/01/22 08:12:24;;;;;;;5.07;1.35;;;6.10;99.90;;;;;;4944328;29;20051;-76
2022/01/22 08:14:50;;;;;;;4.57;0.70;;;6.10;99.90;;;;;;4943049;29;20056;-74
2022/01/22 08:17:15;;;;;;;3.17;0.93;;;6.10;99.90;;;;;;4945153;29;20124;-72
2022/01/22 08:19:42;;;;;;;4.63;0.98;;;6.10;99.90;;;;;;4944072;29;20039;-76
2022/01/22 08:22:07;;;;;;;4.00;1.02;;;6.10;99.90;;;;;;4942754;29;20503;-77
2022/01/22 08:24:33;;;;;;;2.17;0.70;;;6.10;99.90;;;;;;4944990;29;20066;-76
2022/01/22 08:29:38;;;;;;;3.55;1.00;;;6.10;99.90;;;;;;4926434;29;20055;-76
2022/01/22 08:37:27;;;;;;;3.80;0.85;;;6.10;99.90;;;;;;4942107;29;20052;-74
2022/01/22 08:39:53;;;;;;;4.43;1.00;;;7.20;99.90;;;;;;4942657;29;20473;-73
2022/01/22 08:42:20;;;;;;;4.20;1.08;;;6.90;99.90;;;;;;4940154;29;20040;-71
2022/01/22 08:44:46;;;;;;;4.70;1.58;;;7.00;99.90;;;;;;4920275;29;20048;-69
2022/01/22 08:47:13;;;;;;;3.25;1.20;;;6.20;99.90;;;;;;4935315;29;20048;-72
2022/01/22 08:49:39;;;;;;;5.38;1.40;;;6.20;99.90;;;;;;4938600;29;20145;-70
2022/01/22 08:52:11;;;;;;;3.10;0.80;;;6.30;99.90;;;;;;4938540;29;20035;-72
2022/01/22 08:54:37;;;;;;;5.38;1.15;;;6.30;99.90;;;;;;4938464;29;20048;-70
2022/01/22 08:57:03;;;;;;;2.67;0.98;;;6.30;99.90;;;;;;4938640;29;20052;-71
2022/01/22 08:59:29;;;;;;;3.20;1.30;;;6.30;99.90;;;;;;4943389;29;20055;-71
2022/01/22 09:01:55;;;;;;;3.75;1.05;;;6.70;99.90;;;;;;4949052;29;20035;-71
2022/01/22 09:04:21;;;;;;;2.85;0.80;;;6.40;99.90;;;;;;4951574;29;20054;-71
2022/01/22 09:06:47;;;;;;;5.88;1.13;;;6.30;99.90;;;;;;4956866;29;20043;-72
2022/01/22 09:09:13;;;;;;;1.88;0.73;;;6.40;99.90;;;;;;4944859;28;20055;-71
2022/01/22 09:11:41;;;;;;;3.72;1.10;;;6.40;99.90;;;;;;4976690;28;20298;-72
2022/01/22 09:14:09;;;;;;;1.27;0.85;;;6.70;99.90;;;;;;4959224;28;20061;-70
2022/01/22 09:16:35;;;;;;;3.97;0.95;;;6.40;99.90;;;;;;4959522;28;20102;-71
2022/01/22 09:19:06;;;;;;;3.20;0.95;;;6.40;99.90;;;;;;4976777;28;20364;-72
2022/01/22 09:21:41;;;;;;;4.60;1.25;;;6.30;99.90;;;;;;4976942;28;20046;-71
2022/01/22 09:24:08;;;;;;;2.15;0.60;;;6.30;99.90;;;;;;4975888;28;20419;-70
2022/01/22 09:26:36;;;;;;;4.75;1.20;;;6.40;99.90;;;;;;4976004;28;20043;-73
2022/01/22 09:29:03;;;;;;;6.15;1.30;;;6.30;99.90;;;;;;4954113;28;20047;-73
2022/01/22 09:31:29;;;;;;;3.50;0.90;;;6.40;99.90;;;;;;4955829;29;20098;-73
2022/01/22 09:33:57;;;;;;;4.15;1.05;;;6.30;99.90;;;;;;4939117;29;20129;-72
2022/01/22 09:36:24;;;;;;;4.45;0.95;;;6.30;99.90;;;;;;4955885;29;20126;-74
2022/01/22 09:38:50;;;;;;;5.07;0.82;;;6.70;99.90;;;;;;4955743;29;20066;-73
2022/01/22 09:41:17;;;;;;;3.50;0.75;;;6.40;99.90;;;;;;4952512;29;20058;-72
2022/01/22 09:43:42;;;;;;;5.20;0.85;;;6.40;99.90;;;;;;4946702;29;20066;-72
2022/01/22 09:46:08;;;;;;;5.38;1.05;;;6.40;99.90;;;;;;4945814;29;20495;-71
2022/01/22 09:48:39;;;;;;;6.05;0.80;;;6.40;99.90;;;;;;4926238;29;20055;-72
2022/01/22 09:51:04;;;;;;;4.00;0.70;;;6.70;99.90;;;;;;4944405;29;20043;-73
2022/01/22 09:53:30;;;;;;;2.20;0.65;;;6.40;99.90;;;;;;4944987;29;20101;-73
2022/01/22 09:55:55;;;;;;;3.30;0.75;;;6.40;99.90;;;;;;4944299;29;20102;-73
2022/01/22 09:58:21;;;;;;;1.38;0.50;;;6.50;99.90;;;;;;4944824;29;20050;-72
2022/01/22 10:00:47;;;;;;;1.95;0.60;;;6.40;99.90;;;;;;4925780;29;20066;-74
2022/01/22 10:03:20;;;;;;;4.10;0.77;;;6.50;99.90;;;;;;4943341;29;20039;-72
2022/01/22 10:05:47;;;;;;;5.85;1.17;;;6.50;99.90;;;;;;4945956;29;20506;-72
2022/01/22 10:08:35;;;;;;;3.85;0.77;;;6.50;99.90;;;;;;4942813;29;20050;-73
2022/01/22 10:11:02;;;;;;;2.90;0.70;;;6.60;99.90;;;;;;4931871;29;20051;-72
2022/01/22 10:13:41;;;;;;;3.63;0.68;;;6.60;99.90;;;;;;4955224;29;20495;-72
2022/01/22 10:16:27;;;;;;;2.58;0.70;;;6.60;99.90;;;;;;4927445;29;20570;-75
2022/01/22 10:19:15;;;;;;;3.70;0.60;;;6.70;99.90;;;;;;4944308;29;20031;-74
2022/01/22 10:21:45;;;;;;;2.22;0.47;;;6.70;99.90;;;;;;4945948;29;20414;-76
2022/01/22 10:24:38;;;;;;;1.27;0.30;;;6.80;99.90;;;;;;4927881;29;20098;-81
2022/01/22 10:27:23;;;;;;;3.22;0.60;;;6.80;99.90;;;;;;4945019;29;20050;-76
2022/01/22 10:29:52;;;;;;;0.95;0.50;;;6.80;99.90;;;;;;4910735;29;20059;-74
2022/01/22 10:32:34;;;;;;;0.70;0.55;;;6.90;99.90;;;;;;4945339;29;20122;-72
2022/01/22 10:35:13;;;;;;;3.53;1.02;;;7.00;99.90;;;;;;4945704;29;20205;-72
2022/01/22 10:37:39;;;;;;;1.77;0.57;;;7.00;99.90;;;;;;4945293;28;20061;-70
2022/01/22 10:40:18;;;;;;;2.97;0.47;;;7.00;99.90;;;;;;4943070;29;20500;-74
2022/01/22 10:42:44;;;;;;;1.40;0.47;;;7.00;99.90;;;;;;4945234;29;20039;-73
2022/01/22 10:45:13;;;;;;;2.05;0.40;;;7.00;99.90;;;;;;4927005;29;20047;-75
2022/01/22 10:47:38;;;;;;;0.70;0.47;;;7.10;99.90;;;;;;4943892;29;20047;-74
2022/01/22 10:50:22;;;;;;;1.88;0.35;;;7.10;99.90;;;;;;4927807;29;20054;-73
2022/01/22 10:52:55;;;;;;;2.08;0.60;;;7.10;99.90;;;;;;4943532;29;20043;-75
2022/01/22 10:55:21;;;;;;;3.22;0.60;;;7.20;99.90;;;;;;4944142;29;20118;-74
2022/01/22 10:58:09;;;;;;;3.50;0.40;;;7.20;99.90;;;;;;4929329;29;20090;-73
2022/01/22 11:00:36;;;;;;;4.82;0.80;;;7.30;99.90;;;;;;4936404;29;20063;-72
2022/01/22 11:03:21;;;;;;;2.72;0.70;;;7.30;99.90;;;;;;4961534;29;20051;-76
2022/01/22 11:05:47;;;;;;;4.28;0.52;;;7.20;99.90;;;;;;4961701;29;20044;-70
2022/01/22 11:08:13;;;;;;;2.83;0.73;;;7.50;99.90;;;;;;4943332;29;20500;-75
2022/01/22 11:10:44;;;;;;;2.65;0.50;;;7.30;99.90;;;;;;4935624;29;20562;-71
2022/01/22 11:13:10;;;;;;;4.47;0.90;;;7.30;99.90;;;;;;4935415;29;20135;-73
2022/01/22 11:15:36;;;;;;;3.28;0.80;;;7.40;99.90;;;;;;4936904;28;20123;-74
2022/01/22 11:18:03;;;;;;;1.70;0.60;;;7.30;99.90;;;;;;4918334;29;20066;-76
2022/01/22 11:20:32;;;;;;;0.90;0.40;;;7.30;99.90;;;;;;4917865;29;20519;-74
2022/01/22 11:22:59;;;;;;;3.08;0.88;;;7.20;99.90;;;;;;4935866;29;20051;-71
2022/01/22 11:25:25;;;;;;;2.33;0.93;;;7.10;99.90;;;;;;4918344;29;20063;-73
2022/01/22 11:27:52;;;;;;;2.47;0.52;;;7.10;99.90;;;;;;4936423;29;20045;-74
2022/01/22 11:30:25;;;;;;;2.10;0.68;;;7.10;99.90;;;;;;4918172;29;20055;-74
2022/01/22 11:33:11;;;;;;;;;;;7.00;99.90;;;;;;4927113;29;20074;-73
2022/01/22 11:35:52;;;;;;;1.10;0.40;;;7.10;99.90;;;;;;4937276;29;19922;-74
2022/01/22 11:38:30;;;;;;;4.38;0.52;;;7.10;99.90;;;;;;4954218;29;20059;-75
2022/01/22 11:41:06;;;;;;;2.50;0.40;;;7.10;99.90;;;;;;4954316;29;20141;-73
2022/01/22 11:44:14;;;;;;;2.17;0.57;;;7.10;99.90;;;;;;4953705;29;20055;-75
2022/01/22 11:46:45;;;;;;;4.47;1.00;;;7.10;99.90;;;;;;4932435;29;20138;-74
2022/01/22 11:49:14;;;;;;;3.50;0.87;;;7.20;99.90;;;;;;4942909;29;20453;-73
2022/01/22 11:51:45;;;;;;;2.05;0.55;;;7.30;99.90;;;;;;4941986;29;20491;-75
2022/01/22 11:54:11;;;;;;;4.35;0.60;;;7.30;99.90;;;;;;4953466;29;20158;-75
2022/01/22 11:56:48;;;;;;;6.82;0.88;;;7.40;99.90;;;;;;4953755;29;20126;-75
2022/01/22 11:59:15;;;;;;;3.92;1.05;;;7.40;99.90;;;;;;4953210;29;20051;-75
2022/01/22 12:01:56;;;;;;;4.45;0.70;;;7.40;99.90;;;;;;4936351;29;20057;-74
2022/01/22 12:04:24;;;;;;;3.55;0.98;;;7.40;99.90;;;;;;4939754;28;20153;-71
2022/01/22 12:07:05;;;;;;;5.03;1.05;;;7.40;99.90;;;;;;4973365;28;20050;-75
2022/01/22 12:10:04;;;;;;;0.93;0.50;;;7.70;99.90;;;;;;4947172;29;20059;-77
2022/01/22 12:15:30;;;;;;;3.35;1.00;;;7.20;99.90;;;;;;4943948;29;20052;-75
2022/01/22 12:18:05;;;;;;;9.18;1.55;;;7.20;99.90;;;;;;4945209;29;20051;-73
2022/01/22 12:21:30;;;;;;;5.38;0.95;;;7.20;99.90;;;;;;4935141;29;20385;-73
2022/01/22 12:23:18;;;;;;;3.95;1.10;;;7.10;99.90;;;;;;4942451;29;20384;-73
2022/01/22 12:25:44;;;;;;;4.22;1.02;;;7.10;99.90;;;;;;4956826;29;20402;-71
2022/01/22 12:28:31;;;;;;;5.93;1.40;;;7.10;99.90;;;;;;4955150;29;20054;-75
2022/01/22 12:31:05;;;;;;;3.65;1.00;;;7.10;99.90;;;;;;4923209;29;20142;-74
2022/01/22 12:33:34;;;;;;;5.28;1.17;;;7.10;99.90;;;;;;4944743;29;20053;-74
2022/01/22 12:36:02;;;;;;;3.35;0.95;;;7.10;99.90;;;;;;4947254;29;20075;-74
2022/01/22 12:41:27;;;;;;;2.83;0.70;;;7.10;99.90;;;;;;4926574;29;20051;-76
2022/01/22 12:44:07;;;;;;;5.43;1.23;;;7.00;99.90;;;;;;4953998;29;20062;-75
2022/01/22 12:46:34;;;;;;;6.13;1.77;;;7.00;99.90;;;;;;4957244;29;20083;-74
2022/01/22 12:49:02;;;;;;;4.55;1.10;;;7.30;99.90;;;;;;4938738;29;20051;-77
2022/01/22 12:51:28;;;;;;;2.22;0.90;;;7.00;99.90;;;;;;4939732;29;20491;-75
2022/01/22 12:53:54;;;;;;;2.85;0.90;;;7.00;99.90;;;;;;4939304;29;20067;-75
2022/01/22 12:59:04;;;;;;;6.53;1.48;;;6.90;99.90;;;;;;4939087;29;20070;-74
2022/01/22 13:01:32;;;;;;;5.10;1.30;;;6.90;99.90;;;;;;4938916;29;20566;-76
2022/01/22 13:04:01;;;;;;;7.30;2.22;;;6.90;99.90;;;;;;4940178;29;20059;-76
2022/01/22 13:06:40;;;;;;;14.38;4.90;;;6.90;99.90;;;;;;4938691;29;20051;-76
2022/01/22 13:09:07;;;;;;;10.82;4.40;;;6.90;99.90;;;;;;4956968;29;20458;-75
2022/01/22 13:11:33;;;;;;;8.68;3.92;;;7.00;99.90;;;;;;4940062;29;20094;-77
2022/01/22 13:13:59;;;;;;;9.43;2.72;;;7.10;99.90;;;;;;4940451;29;20384;-77
2022/01/22 13:16:26;;;;;;;9.32;2.92;;;7.00;99.90;;;;;;4957228;29;20558;-76
2022/01/22 13:18:58;;;;;;;10.88;3.78;;;7.00;99.90;;;;;;4940018;29;20491;-75
2022/01/22 13:21:27;;;;;;;;;;;7.00;99.90;;;;;;4958795;28;20055;-76
2022/01/22 13:24:10;;;;;;;8.65;2.85;;;7.10;99.90;;;;;;4931100;29;19922;-77
2022/01/22 13:27:04;;;;;;;6.38;2.35;;;7.10;99.90;;;;;;4948279;28;20444;-76
2022/01/22 13:29:37;;;;;;;6.63;2.08;;;7.30;99.90;;;;;;4948631;28;20480;-78
2022/01/22 13:32:03;;;;;;;6.78;1.90;;;7.10;99.90;;;;;;4947173;28;20071;-74
2022/01/22 13:34:46;;;;;;;5.75;1.80;;;7.10;99.90;;;;;;4947533;28;20078;-77
2022/01/22 13:37:51;;;;;;;6.45;2.03;;;7.10;99.90;;;;;;4948151;28;20416;-76
2022/01/22 13:48:27;;;;;;;3.85;1.35;;;7.10;99.90;;;;;;4936892;29;20044;-75
2022/01/22 13:50:53;;;;;;;6.05;1.98;;;7.10;99.90;;;;;;4919886;29;20064;-76
2022/01/22 13:53:19;;;;;;;8.60;2.22;;;7.20;99.90;;;;;;4937482;29;20051;-76
2022/01/22 13:55:58;;;;;;;8.70;3.05;;;7.10;99.90;;;;;;4937835;29;20040;-75
2022/01/22 13:58:24;;;;;;;9.02;2.90;;;7.00;99.90;;;;;;4936828;29;20035;-73
2022/01/22 14:00:50;;;;;;;7.00;2.47;;;7.30;99.90;;;;;;4959545;29;20054;-72
2022/01/22 14:06:07;;;;;;;9.70;2.42;;;7.00;99.90;;;;;;4879409;29;20053;-74
2022/01/22 14:08:34;;;;;;;8.65;3.05;;;7.00;99.90;;;;;;4879029;29;20065;-74
2022/01/22 14:11:09;;;;;;;10.07;2.88;;;7.40;99.90;;;;;;4878952;29;20148;-74
2022/01/22 14:13:36;;;;;;;9.65;2.30;;;6.90;99.90;;;;;;4871273;29;20120;-73
2022/01/22 14:16:21;;;;;;;6.63;2.17;;;6.90;99.90;;;;;;4875814;29;20086;-74
2022/01/22 14:18:47;;;;;;;10.90;3.08;;;6.90;99.90;;;;;;4866366;29;20063;-74
2022/01/22 14:21:19;;;;;;;11.18;3.10;;;6.90;99.90;;;;;;4879718;29;20857;-74
2022/01/22 14:23:50;;;;;;;8.17;2.90;;;6.80;99.90;;;;;;4877823;29;20135;-74
2022/01/22 14:26:27;;;;;;;7.28;2.90;;;6.80;99.90;;;;;;4877789;29;20297;-74
2022/01/22 14:28:58;;;;;;;9.18;2.80;;;7.00;99.90;;;;;;4877650;29;20049;-75
2022/01/22 14:31:27;;;;;;;17.08;3.10;;;6.80;99.90;;;;;;4861098;29;20567;-73
2022/01/22 14:33:55;;;;;;;13.90;3.05;;;6.80;99.90;;;;;;4876970;29;20531;-71
2022/01/22 14:36:25;;;;;;;16.67;3.55;;;6.80;99.90;;;;;;4876715;29;20246;-70
2022/01/22 14:38:55;;;;;;;11.63;3.83;;;6.80;99.90;;;;;;4875538;29;20067;-70
2022/01/22 14:46:52;;;;;;;10.20;2.80;;;6.80;99.90;;;;;;4954165;28;20055;-71
2022/01/22 14:49:28;;;;;;;4.80;1.90;;;6.80;99.90;;;;;;4954579;29;20056;-71
2022/01/22 14:51:55;;;;;;;5.65;1.98;;;6.80;99.90;;;;;;4954912;29;20134;-69
2022/01/22 14:54:24;;;;;;;8.98;1.63;;;6.80;99.90;;;;;;4954535;29;20047;-72
2022/01/22 14:56:49;;;;;;;7.03;1.77;;;6.80;99.90;;;;;;4954445;29;20059;-70
2022/01/22 14:59:15;;;;;;;5.45;1.95;;;6.70;99.90;;;;;;4950253;29;20145;-71
2022/01/22 15:01:41;;;;;;;4.93;1.63;;;6.70;99.90;;;;;;4936727;29;20098;-72